Time;durP1;ratioP1;P1;durP2;ratioP2;P2;SDS_P1;SDS_P2;PMS_P1;PMS_P2;Temp;Humidity;BMP_temperature;BMP_pressure;BME280_temperature;BME280_humidity;BME280_pressure;Samples;Min_cycle;Max_cycle;Signal;HPM_P1;HPM_P2
2023/04/21 00:01:31;;;;;;;30.23;19.13;;;8.50;99.90;;;;;;5013413;28;20133;-80
2023/04/21 00:03:58;;;;;;;28.45;19.63;;;9.00;99.90;;;;;;5013552;28;20048;-81
2023/04/21 00:06:25;;;;;;;29.77;18.58;;;8.60;99.90;;;;;;4996104;28;21581;-79
2023/04/21 00:08:51;;;;;;;30.58;19.63;;;8.50;99.90;;;;;;5013803;28;20116;-78
2023/04/21 00:11:18;;;;;;;38.50;19.77;;;8.50;99.90;;;;;;5018593;28;20049;-80
2023/04/21 00:13:43;;;;;;;29.40;18.42;;;8.50;99.90;;;;;;5024319;28;20041;-79
2023/04/21 00:16:09;;;;;;;29.25;18.30;;;8.50;99.90;;;;;;5008697;28;20617;-79
2023/04/21 00:18:35;;;;;;;29.55;19.20;;;8.50;99.90;;;;;;5021803;28;20453;-81
2023/04/21 00:21:01;;;;;;;31.15;17.75;;;8.80;99.90;;;;;;5020536;28;20320;-80
2023/04/21 00:23:27;;;;;;;28.85;18.08;;;8.50;99.90;;;;;;5023714;28;20068;-80
2023/04/21 00:25:53;;;;;;;32.20;19.08;;;8.60;99.90;;;;;;5015285;28;20103;-82
2023/04/21 00:28:19;;;;;;;28.77;17.65;;;8.50;99.90;;;;;;5012645;28;20600;-81
2023/04/21 00:30:45;;;;;;;26.60;16.70;;;8.40;99.90;;;;;;5015789;28;20129;-81
2023/04/21 00:33:11;;;;;;;29.80;16.90;;;8.40;99.90;;;;;;5047627;28;20129;-81
2023/04/21 00:35:36;;;;;;;26.10;15.80;;;8.40;99.90;;;;;;5017108;28;20458;-81
2023/04/21 00:38:02;;;;;;;29.98;15.75;;;8.90;99.90;;;;;;5028008;28;20049;-80
2023/04/21 00:40:28;;;;;;;31.95;16.90;;;8.40;99.90;;;;;;5015377;28;20049;-80
2023/04/21 00:42:54;;;;;;;24.00;15.80;;;8.40;99.90;;;;;;5014945;28;20050;-80
2023/04/21 00:45:20;;;;;;;30.67;15.55;;;8.40;99.90;;;;;;5013289;28;20132;-80
2023/04/21 00:47:46;;;;;;;25.65;16.27;;;8.30;99.90;;;;;;4996947;28;20052;-81
2023/04/21 00:50:12;;;;;;;24.90;15.07;;;8.30;99.90;;;;;;4996178;28;20053;-81
2023/04/21 00:52:43;;;;;;;27.63;16.02;;;8.30;99.90;;;;;;5011457;28;20042;-80
2023/04/21 00:55:09;;;;;;;29.45;16.85;;;8.30;99.90;;;;;;5044370;28;20041;-79
2023/04/21 00:57:39;;;;;;;25.75;15.40;;;8.20;99.90;;;;;;5014232;28;20514;-81
2023/04/21 01:00:07;;;;;;;27.55;15.70;;;8.20;99.90;;;;;;4995208;28;20060;-78
2023/04/21 01:02:38;;;;;;;26.33;15.30;;;8.20;99.90;;;;;;5042490;28;20061;-81
2023/04/21 01:05:08;;;;;;;27.85;15.32;;;8.20;99.90;;;;;;5013030;28;20045;-80
2023/04/21 01:07:35;;;;;;;29.60;16.60;;;8.10;99.90;;;;;;5012072;28;20041;-82
2023/04/21 01:10:01;;;;;;;27.35;14.95;;;8.10;99.90;;;;;;5011059;28;20100;-80
2023/04/21 01:12:27;;;;;;;27.60;16.15;;;8.10;99.90;;;;;;5013271;28;20037;-81
2023/04/21 01:14:52;;;;;;;27.65;16.30;;;8.10;99.90;;;;;;5011168;28;20573;-81
2023/04/21 01:17:18;;;;;;;28.95;16.17;;;8.00;99.90;;;;;;5010818;28;20848;-80
2023/04/21 01:19:45;;;;;;;29.27;16.08;;;8.10;99.90;;;;;;4996017;28;20052;-80
2023/04/21 01:22:11;;;;;;;24.77;16.45;;;8.50;99.90;;;;;;5010974;28;20050;-82
2023/04/21 01:24:42;;;;;;;25.58;15.70;;;8.00;99.90;;;;;;5027217;28;20049;-81
2023/04/21 01:27:14;;;;;;;29.13;16.45;;;8.00;99.90;;;;;;5010909;28;20042;-80
2023/04/21 01:29:41;;;;;;;;;;;8.00;99.90;;;;;;5046448;28;20103;-80
2023/04/21 01:32:13;;;;;;;29.23;16.08;;;8.00;99.90;;;;;;5028242;28;20058;-80
2023/04/21 01:34:40;;;;;;;25.83;15.63;;;7.90;99.90;;;;;;5012420;28;20133;-80
2023/04/21 01:37:11;;;;;;;31.23;16.52;;;7.90;99.90;;;;;;4996043;28;20625;-82
2023/04/21 01:39:39;;;;;;;24.52;15.50;;;7.90;99.90;;;;;;5029952;28;20044;-81
2023/04/21 01:42:04;;;;;;;25.75;16.33;;;7.90;99.90;;;;;;5013236;28;20124;-81
2023/04/21 01:44:30;;;;;;;27.30;15.60;;;7.90;99.90;;;;;;5017138;28;20145;-81
2023/04/21 01:46:56;;;;;;;32.85;16.48;;;7.90;99.90;;;;;;4998753;28;20046;-81
2023/04/21 01:49:22;;;;;;;25.95;16.08;;;8.30;99.90;;;;;;5012206;28;20491;-82
2023/04/21 01:51:48;;;;;;;25.52;15.90;;;7.80;99.90;;;;;;5014780;28;20060;-81
2023/04/21 01:54:13;;;;;;;24.45;15.52;;;7.80;99.90;;;;;;5022436;28;20041;-82
2023/04/21 01:56:39;;;;;;;28.15;15.40;;;7.80;99.90;;;;;;5020947;28;20050;-81
2023/04/21 01:59:05;;;;;;;25.77;15.07;;;7.80;99.90;;;;;;5001111;28;20037;-82
2023/04/21 02:01:31;;;;;;;29.15;15.48;;;7.80;99.90;;;;;;5038723;28;20449;-80
2023/04/21 02:03:57;;;;;;;25.10;15.05;;;7.80;99.90;;;;;;5006480;28;20407;-81
2023/04/21 02:06:22;;;;;;;24.48;14.35;;;7.90;99.90;;;;;;5006342;28;20055;-82
2023/04/21 02:08:48;;;;;;;24.15;14.15;;;7.90;99.90;;;;;;5021813;28;20751;-82
2023/04/21 02:11:14;;;;;;;26.70;15.30;;;7.90;99.90;;;;;;5004410;28;20071;-82
2023/04/21 02:13:40;;;;;;;24.50;14.50;;;7.90;99.90;;;;;;5005449;28;20494;-81
2023/04/21 02:16:06;;;;;;;29.35;14.93;;;8.00;99.90;;;;;;5005539;28;20813;-82
2023/04/21 02:18:33;;;;;;;29.13;15.23;;;8.00;99.90;;;;;;5030755;28;20048;-81
2023/04/21 02:20:59;;;;;;;23.70;14.98;;;8.00;99.90;;;;;;5015188;28;21688;-81
2023/04/21 02:23:24;;;;;;;27.30;15.25;;;8.00;99.90;;;;;;5027257;28;20048;-81
2023/04/21 02:25:50;;;;;;;28.30;14.52;;;8.00;99.90;;;;;;5026242;28;20046;-81
2023/04/21 02:28:16;;;;;;;21.50;13.90;;;8.00;99.90;;;;;;5005386;28;20048;-82
2023/04/21 02:30:41;;;;;;;24.92;14.68;;;8.00;99.90;;;;;;5014769;28;20069;-79
2023/04/21 02:33:07;;;;;;;29.08;15.43;;;8.00;99.90;;;;;;5015172;28;20088;-84
2023/04/21 02:35:33;;;;;;;30.00;14.95;;;8.00;99.90;;;;;;5015806;28;20129;-83
2023/04/21 02:38:05;;;;;;;27.10;14.77;;;8.00;99.90;;;;;;5017188;28;20176;-84
2023/04/21 02:40:31;;;;;;;24.73;14.27;;;8.00;99.90;;;;;;5019914;28;20414;-84
2023/04/21 02:42:57;;;;;;;27.48;14.73;;;8.00;99.90;;;;;;5024700;28;20085;-83
2023/04/21 02:45:22;;;;;;;28.33;16.25;;;8.00;99.90;;;;;;5011608;28;20084;-87
2023/04/21 02:47:48;;;;;;;25.88;15.25;;;8.00;99.90;;;;;;5032500;28;20041;-84
2023/04/21 02:50:14;;;;;;;32.50;15.50;;;8.00;99.90;;;;;;5049685;28;20073;-82
2023/04/21 02:52:40;;;;;;;26.77;15.85;;;8.00;99.90;;;;;;5015495;28;20415;-83
2023/04/21 02:55:06;;;;;;;28.60;15.70;;;8.00;99.90;;;;;;5016868;28;20367;-82
2023/04/21 02:57:32;;;;;;;29.02;15.50;;;8.00;99.90;;;;;;5018780;28;20065;-82
2023/04/21 02:59:58;;;;;;;28.58;16.08;;;8.00;99.90;;;;;;5001995;28;20128;-83
2023/04/21 03:02:24;;;;;;;24.90;14.95;;;8.00;99.90;;;;;;5053764;28;20045;-82
2023/04/21 03:04:52;;;;;;;27.77;15.70;;;8.00;99.90;;;;;;5028040;28;20042;-86
2023/04/21 03:07:18;;;;;;;27.13;16.10;;;8.00;99.90;;;;;;5027722;28;20128;-83
2023/04/21 03:09:44;;;;;;;26.02;15.38;;;8.40;99.90;;;;;;5025467;28;20140;-83
2023/04/21 03:12:10;;;;;;;24.45;15.43;;;8.00;99.90;;;;;;5026457;28;20048;-85
2023/04/21 03:14:40;;;;;;;28.27;15.77;;;8.00;99.90;;;;;;5014956;28;20714;-83
2023/04/21 03:17:05;;;;;;;30.95;14.43;;;8.00;99.90;;;;;;5021705;28;20045;-82
2023/04/21 03:19:31;;;;;;;28.15;15.07;;;8.00;99.90;;;;;;5025541;28;20107;-86
2023/04/21 03:21:57;;;;;;;23.30;14.27;;;8.00;99.90;;;;;;5027053;28;20105;-83
2023/04/21 03:24:23;;;;;;;23.48;14.20;;;8.00;99.90;;;;;;5036775;28;20049;-83
2023/04/21 03:26:50;;;;;;;31.15;15.48;;;8.00;99.90;;;;;;5024541;28;20052;-81
2023/04/21 03:29:16;;;;;;;23.55;14.13;;;8.00;99.90;;;;;;5033794;28;20046;-82
2023/04/21 03:31:41;;;;;;;27.88;14.90;;;8.00;99.90;;;;;;5016592;28;20043;-82
2023/04/21 03:34:07;;;;;;;25.40;15.05;;;8.00;99.90;;;;;;5020366;28;20118;-86
2023/04/21 03:36:33;;;;;;;23.67;15.00;;;8.00;99.90;;;;;;5029554;28;20056;-84
2023/04/21 03:38:59;;;;;;;25.02;14.48;;;8.00;99.90;;;;;;5010595;28;20126;-83
2023/04/21 03:41:25;;;;;;;26.50;14.85;;;8.20;99.90;;;;;;5011138;28;20075;-84
2023/04/21 03:43:51;;;;;;;27.40;14.48;;;8.30;99.90;;;;;;5025699;28;20046;-85
2023/04/21 03:46:22;;;;;;;26.73;14.48;;;8.10;99.90;;;;;;5023711;28;20119;-86
2023/04/21 03:48:48;;;;;;;24.88;14.40;;;8.10;99.90;;;;;;5021773;28;20121;-82
2023/04/21 03:51:14;;;;;;;28.20;14.52;;;8.00;99.90;;;;;;5026336;28;20121;-83
2023/04/21 03:53:40;;;;;;;25.92;14.50;;;8.10;99.90;;;;;;5024407;28;20046;-82
2023/04/21 03:56:06;;;;;;;28.33;13.82;;;8.10;99.90;;;;;;5024895;28;20048;-81
2023/04/21 03:58:33;;;;;;;25.35;13.27;;;8.10;99.90;;;;;;5024117;28;20159;-81
2023/04/21 04:00:58;;;;;;;24.23;14.25;;;8.10;99.90;;;;;;5025446;28;20114;-80
2023/04/21 04:03:24;;;;;;;21.75;13.93;;;8.10;99.90;;;;;;5024815;28;20049;-81
2023/04/21 04:05:51;;;;;;;25.05;13.80;;;8.20;99.90;;;;;;5020789;28;20069;-82
2023/04/21 04:08:16;;;;;;;26.27;13.52;;;8.70;99.90;;;;;;5022986;28;20038;-82
2023/04/21 04:10:42;;;;;;;23.70;12.52;;;8.00;99.90;;;;;;5005805;28;20045;-83
2023/04/21 04:13:08;;;;;;;25.23;13.57;;;8.10;99.90;;;;;;5034434;28;20114;-83
2023/04/21 04:15:34;;;;;;;20.27;13.00;;;8.10;99.90;;;;;;5015829;28;20049;-82
2023/04/21 04:18:00;;;;;;;27.35;13.80;;;8.00;99.90;;;;;;5013603;28;20114;-83
2023/04/21 04:20:26;;;;;;;28.60;13.82;;;8.10;99.90;;;;;;5012637;28;20045;-83
2023/04/21 04:22:52;;;;;;;24.13;13.13;;;8.00;99.90;;;;;;5013491;28;20568;-82
2023/04/21 04:25:17;;;;;;;20.73;12.93;;;8.10;99.90;;;;;;5027586;28;20106;-83
2023/04/21 04:27:44;;;;;;;25.17;13.43;;;8.40;99.90;;;;;;5015495;28;20148;-82
2023/04/21 04:30:11;;;;;;;32.15;13.52;;;8.10;99.90;;;;;;5013185;28;20052;-83
2023/04/21 04:32:38;;;;;;;25.52;13.23;;;8.00;99.90;;;;;;5011734;28;20048;-82
2023/04/21 04:35:08;;;;;;;24.48;14.07;;;8.00;99.90;;;;;;5001080;28;20588;-83
2023/04/21 04:37:36;;;;;;;29.02;13.48;;;8.20;99.90;;;;;;5024779;28;20045;-83
2023/04/21 04:40:04;;;;;;;24.00;12.75;;;8.00;99.90;;;;;;5023555;28;21311;-82
2023/04/21 04:42:31;;;;;;;30.17;14.98;;;8.00;99.90;;;;;;5013255;28;21652;-82
2023/04/21 04:44:58;;;;;;;22.10;11.95;;;8.30;99.90;;;;;;5047200;28;20128;-83
2023/04/21 04:47:24;;;;;;;23.08;13.15;;;8.00;99.90;;;;;;5012857;28;20158;-83
2023/04/21 04:49:50;;;;;;;20.15;12.20;;;8.00;99.90;;;;;;5001343;28;20494;-84
2023/04/21 04:52:16;;;;;;;22.77;12.65;;;8.00;99.90;;;;;;5025333;28;20089;-84
2023/04/21 04:54:41;;;;;;;20.25;12.30;;;8.70;99.90;;;;;;5021608;28;20045;-84
2023/04/21 04:57:07;;;;;;;20.73;12.07;;;8.00;99.90;;;;;;5021084;28;20551;-85
2023/04/21 04:59:33;;;;;;;24.30;12.88;;;8.40;99.90;;;;;;5005010;28;20038;-83
2023/04/21 05:01:59;;;;;;;26.33;12.93;;;8.10;99.90;;;;;;5002419;28;20033;-83
2023/04/21 05:04:25;;;;;;;20.38;12.40;;;8.10;99.90;;;;;;5016865;28;20127;-83
2023/04/21 05:06:51;;;;;;;24.23;12.05;;;8.10;99.90;;;;;;5037227;28;20037;-84
2023/04/21 05:09:16;;;;;;;19.52;11.90;;;8.10;99.90;;;;;;5034929;28;20038;-84
2023/04/21 05:11:42;;;;;;;20.88;11.93;;;8.20;99.90;;;;;;5004856;28;20187;-83
2023/04/21 05:14:08;;;;;;;21.20;11.98;;;8.20;99.90;;;;;;5021797;28;20136;-82
2023/04/21 05:16:34;;;;;;;19.27;11.43;;;8.20;99.90;;;;;;5026617;28;20045;-84
2023/04/21 05:19:03;;;;;;;22.27;12.10;;;8.30;99.90;;;;;;5025735;28;20038;-84
2023/04/21 05:21:30;;;;;;;21.02;11.23;;;8.40;99.90;;;;;;5024496;28;20049;-84
2023/04/21 05:23:57;;;;;;;17.40;10.55;;;8.60;99.90;;;;;;5005559;28;20038;-83
2023/04/21 05:26:26;;;;;;;20.52;10.90;;;8.90;99.90;;;;;;5021048;28;20092;-83
2023/04/21 05:28:52;;;;;;;21.02;10.15;;;9.10;99.90;;;;;;5018669;28;20053;-81
2023/04/21 05:31:18;;;;;;;20.00;10.98;;;9.40;99.90;;;;;;5014496;28;20228;-82
2023/04/21 05:33:43;;;;;;;23.13;10.98;;;9.50;99.90;;;;;;5011802;28;20057;-83
2023/04/21 05:36:10;;;;;;;17.42;9.10;;;9.70;99.90;;;;;;5022874;28;20532;-81
2023/04/21 05:38:36;;;;;;;19.15;9.77;;;9.80;99.90;;;;;;5051786;28;20053;-81
2023/04/21 05:41:02;;;;;;;15.68;9.65;;;9.90;99.90;;;;;;5008674;28;20068;-81
2023/04/21 05:43:32;;;;;;;20.23;9.30;;;9.70;99.90;;;;;;4991792;28;20077;-80
2023/04/21 05:45:59;;;;;;;18.95;9.70;;;9.70;99.90;;;;;;5010744;28;20045;-83
2023/04/21 05:48:26;;;;;;;16.77;9.20;;;9.70;99.90;;;;;;4999310;28;20050;-83
2023/04/21 05:50:52;;;;;;;18.15;9.88;;;9.60;99.90;;;;;;5001652;28;20111;-82
2023/04/21 05:53:17;;;;;;;15.32;8.98;;;9.60;99.90;;;;;;4995180;28;20049;-81
2023/04/21 05:55:43;;;;;;;17.27;9.05;;;9.60;99.90;;;;;;5011857;28;20516;-82
2023/04/21 05:58:09;;;;;;;21.45;9.98;;;9.60;99.90;;;;;;5013322;28;20037;-82
2023/04/21 06:00:35;;;;;;;20.75;9.25;;;9.60;99.90;;;;;;5035401;28;20494;-81
2023/04/21 06:03:01;;;;;;;21.92;9.48;;;10.10;99.90;;;;;;4990667;28;20095;-81
2023/04/21 06:05:27;;;;;;;19.08;9.00;;;9.60;99.90;;;;;;5009831;28;20330;-82
2023/04/21 06:07:53;;;;;;;18.80;10.20;;;9.60;99.90;;;;;;5009409;28;20155;-81
2023/04/21 06:10:20;;;;;;;19.75;9.30;;;9.50;99.90;;;;;;4995114;28;20041;-82
2023/04/21 06:12:46;;;;;;;19.13;9.40;;;9.60;99.90;;;;;;5027826;28;20049;-82
2023/04/21 06:15:12;;;;;;;18.35;9.30;;;9.50;99.90;;;;;;5041800;28;20052;-82
2023/04/21 06:17:38;;;;;;;20.45;9.88;;;9.50;99.90;;;;;;4994193;28;20108;-81
2023/04/21 06:20:04;;;;;;;20.38;9.57;;;9.50;99.90;;;;;;5041686;28;20353;-81
2023/04/21 06:22:31;;;;;;;17.73;9.50;;;9.50;99.90;;;;;;5010551;28;20041;-82
2023/04/21 06:24:57;;;;;;;22.17;9.88;;;9.60;99.90;;;;;;5016447;28;20044;-81
2023/04/21 06:27:23;;;;;;;16.73;9.60;;;9.60;99.90;;;;;;5011801;28;20045;-81
2023/04/21 06:29:54;;;;;;;14.57;8.82;;;9.70;99.90;;;;;;4996991;28;20525;-79
2023/04/21 06:32:20;;;;;;;19.83;9.18;;;9.80;99.90;;;;;;5031941;28;20045;-82
2023/04/21 06:34:46;;;;;;;24.88;9.60;;;9.80;99.90;;;;;;5025376;28;20515;-80
2023/04/21 06:37:12;;;;;;;21.83;9.80;;;10.10;99.90;;;;;;5028162;28;20129;-81
2023/04/21 06:39:38;;;;;;;19.83;9.43;;;10.10;99.90;;;;;;5039383;28;20201;-81
2023/04/21 06:42:04;;;;;;;17.85;9.20;;;10.10;99.90;;;;;;4990797;28;20080;-80
2023/04/21 06:44:31;;;;;;;17.65;9.07;;;10.20;99.90;;;;;;5007820;28;20053;-82
2023/04/21 06:46:57;;;;;;;20.65;8.65;;;10.30;99.90;;;;;;5005890;28;20073;-80
2023/04/21 06:49:23;;;;;;;16.73;8.73;;;10.40;99.90;;;;;;5006508;28;20107;-81
2023/04/21 06:51:48;;;;;;;16.67;9.27;;;10.50;99.90;;;;;;5024583;28;20049;-80
2023/04/21 06:54:15;;;;;;;13.95;8.52;;;10.50;99.90;;;;;;5040133;28;20112;-82
2023/04/21 06:56:41;;;;;;;16.30;8.45;;;10.60;99.90;;;;;;4996827;28;20041;-83
2023/04/21 06:59:08;;;;;;;18.90;9.45;;;10.70;99.90;;;;;;5055068;28;20120;-80
2023/04/21 07:01:34;;;;;;;18.25;8.98;;;10.70;99.90;;;;;;5018618;28;20042;-82
2023/04/21 07:04:00;;;;;;;13.02;8.15;;;10.80;99.90;;;;;;5013078;28;20052;-80
2023/04/21 07:06:26;;;;;;;13.65;8.68;;;10.80;99.90;;;;;;5010867;28;20049;-80
2023/04/21 07:08:51;;;;;;;22.20;9.25;;;10.90;99.90;;;;;;5006313;28;20042;-80
2023/04/21 07:11:18;;;;;;;15.07;9.00;;;11.00;99.90;;;;;;5007529;28;20049;-80
2023/04/21 07:13:44;;;;;;;19.27;9.25;;;11.10;99.90;;;;;;5008572;28;20045;-81
2023/04/21 07:16:10;;;;;;;21.73;9.05;;;11.30;99.90;;;;;;5009650;28;20225;-81
2023/04/21 07:18:37;;;;;;;16.65;8.73;;;11.30;99.90;;;;;;4993961;28;20045;-80
2023/04/21 07:21:03;;;;;;;21.83;9.25;;;11.40;99.90;;;;;;5017743;28;20053;-81
2023/04/21 07:23:29;;;;;;;15.18;8.43;;;11.50;99.90;;;;;;5047375;28;20055;-79
2023/04/21 07:25:55;;;;;;;18.92;9.15;;;11.60;99.90;;;;;;5017988;28;20140;-79
2023/04/21 07:28:21;;;;;;;20.05;9.15;;;11.70;99.90;;;;;;5049564;28;20128;-81
2023/04/21 07:30:46;;;;;;;21.02;9.10;;;11.80;99.90;;;;;;5048304;28;20045;-80
2023/04/21 07:33:13;;;;;;;18.02;9.35;;;11.90;99.90;;;;;;5032008;28;20053;-84
2023/04/21 07:35:39;;;;;;;21.30;9.23;;;11.90;99.90;;;;;;5007933;28;20063;-82
2023/04/21 07:38:04;;;;;;;24.00;10.18;;;12.00;99.90;;;;;;5014040;28;20041;-79
2023/04/21 07:40:30;;;;;;;18.85;9.18;;;12.00;99.90;;;;;;5015726;28;21012;-80
2023/04/21 07:42:56;;;;;;;17.20;7.90;;;12.10;99.90;;;;;;4993841;28;20057;-81
2023/04/21 07:45:22;;;;;;;18.95;9.02;;;12.20;99.90;;;;;;5033729;28;20080;-81
2023/04/21 07:47:47;;;;;;;21.52;8.75;;;12.30;99.90;;;;;;4994808;28;20428;-80
2023/04/21 07:50:13;;;;;;;20.02;8.50;;;12.30;99.90;;;;;;5014912;28;20513;-79
2023/04/21 07:52:39;;;;;;;18.27;8.43;;;12.40;99.90;;;;;;5027620;28;20148;-79
2023/04/21 07:55:05;;;;;;;17.60;7.60;;;12.50;99.90;;;;;;4998036;28;20529;-80
2023/04/21 07:57:33;;;;;;;19.45;8.55;;;12.60;99.90;;;;;;5001403;28;21714;-83
2023/04/21 07:59:59;;;;;;;17.42;8.75;;;12.60;99.90;;;;;;5012025;28;20539;-79
2023/04/21 08:02:25;;;;;;;18.58;8.32;;;12.70;99.90;;;;;;5004615;28;20049;-78
2023/04/21 08:04:50;;;;;;;15.98;8.05;;;12.70;99.90;;;;;;4996721;28;20725;-79
2023/04/21 08:07:17;;;;;;;15.55;8.65;;;12.80;99.90;;;;;;5008730;28;20052;-78
2023/04/21 08:09:42;;;;;;;18.85;8.35;;;12.90;99.90;;;;;;4991665;28;20068;-78
2023/04/21 08:12:09;;;;;;;18.48;8.38;;;13.00;99.90;;;;;;5012781;28;21105;-80
2023/04/21 08:14:35;;;;;;;17.15;8.25;;;13.10;99.90;;;;;;5018397;28;20060;-80
2023/04/21 08:17:00;;;;;;;19.48;8.38;;;13.10;99.90;;;;;;4998228;28;20056;-81
2023/04/21 08:19:26;;;;;;;16.00;8.52;;;13.20;99.90;;;;;;4996790;28;20041;-79
2023/04/21 08:21:52;;;;;;;24.48;8.68;;;13.20;99.90;;;;;;4996474;28;20103;-81
2023/04/21 08:24:18;;;;;;;18.38;8.88;;;13.30;99.90;;;;;;5009597;28;20046;-83
2023/04/21 08:26:44;;;;;;;18.02;9.02;;;13.40;99.90;;;;;;5003475;28;20139;-81
2023/04/21 08:29:12;;;;;;;13.95;8.43;;;13.40;99.90;;;;;;5000815;28;20140;-79
2023/04/21 08:31:38;;;;;;;18.30;8.85;;;13.50;99.90;;;;;;5044803;28;20093;-80
2023/04/21 08:34:03;;;;;;;18.98;8.30;;;13.60;99.90;;;;;;4999292;28;20372;-82
2023/04/21 08:36:30;;;;;;;17.02;8.00;;;13.70;99.90;;;;;;5030037;28;20049;-79
2023/04/21 08:38:56;;;;;;;15.32;7.80;;;13.70;99.90;;;;;;5030749;28;20383;-82
2023/04/21 08:41:23;;;;;;;19.33;8.35;;;13.80;99.90;;;;;;5014972;28;20068;-80
2023/04/21 08:43:48;;;;;;;14.95;7.70;;;13.80;99.90;;;;;;5015767;28;20042;-79
2023/04/21 08:46:15;;;;;;;17.88;8.32;;;13.90;99.90;;;;;;5000404;28;20068;-79
2023/04/21 08:48:41;;;;;;;15.63;8.50;;;13.90;99.90;;;;;;5017506;28;21357;-81
2023/04/21 08:51:11;;;;;;;17.00;8.13;;;14.30;99.90;;;;;;5014107;28;20053;-80
2023/04/21 08:53:40;;;;;;;17.88;8.60;;;14.00;99.90;;;;;;5041691;28;20267;-80
2023/04/21 08:56:06;;;;;;;16.98;8.60;;;14.10;99.90;;;;;;5004683;28;20049;-77
2023/04/21 08:58:32;;;;;;;17.33;7.45;;;14.20;99.90;;;;;;5026370;28;20045;-80
2023/04/21 09:00:57;;;;;;;17.80;8.13;;;14.30;99.90;;;;;;4995345;28;20069;-80
2023/04/21 09:03:27;;;;;;;20.95;7.78;;;14.30;99.90;;;;;;5032629;28;20041;-78
2023/04/21 09:06:05;;;;;;;24.00;8.55;;;14.40;99.90;;;;;;4993381;28;20053;-78
2023/04/21 09:08:32;;;;;;;18.40;7.88;;;14.50;99.90;;;;;;4991116;28;20100;-79
2023/04/21 09:11:00;;;;;;;18.70;8.40;;;14.50;99.90;;;;;;4992559;28;20064;-81
2023/04/21 09:13:34;;;;;;;17.08;7.82;;;14.60;99.90;;;;;;5037201;28;20044;-79
2023/04/21 09:16:02;;;;;;;13.30;7.82;;;14.70;99.90;;;;;;4990610;28;20061;-80
2023/04/21 09:18:34;;;;;;;16.45;7.93;;;14.70;99.90;;;;;;5022462;28;21106;-79
2023/04/21 09:21:16;;;;;;;17.83;7.45;;;14.80;99.90;;;;;;4974473;28;20057;-80
2023/04/21 09:23:49;;;;;;;17.20;8.05;;;14.90;99.90;;;;;;4970361;28;20052;-79
2023/04/21 09:26:18;;;;;;;15.80;8.52;;;14.80;99.90;;;;;;5022467;28;20045;-79
2023/04/21 09:28:46;;;;;;;15.63;7.18;;;15.00;99.90;;;;;;5036219;28;20148;-79
2023/04/21 09:31:27;;;;;;;12.95;7.63;;;15.10;99.90;;;;;;5004058;28;20522;-78
2023/04/21 09:33:55;;;;;;;;;;;15.20;99.90;;;;;;4986728;28;20148;-79
2023/04/21 09:36:23;;;;;;;18.15;7.55;;;15.20;99.90;;;;;;4998161;28;19921;-80
2023/04/21 09:39:03;;;;;;;12.38;7.28;;;15.30;99.90;;;;;;5037284;28;20115;-80
2023/04/21 09:41:30;;;;;;;17.08;8.05;;;15.40;99.90;;;;;;5004931;28;20046;-80
2023/04/21 09:44:00;;;;;;;18.23;7.80;;;15.50;99.90;;;;;;5002679;28;20088;-80
2023/04/21 09:46:28;;;;;;;23.15;7.75;;;15.50;99.90;;;;;;5002709;28;20172;-79
2023/04/21 09:48:55;;;;;;;16.50;7.20;;;15.50;99.90;;;;;;5003347;28;20081;-77
2023/04/21 09:51:25;;;;;;;12.38;7.45;;;15.60;99.90;;;;;;5034860;28;20053;-80
2023/04/21 09:53:57;;;;;;;15.88;7.50;;;15.60;99.90;;;;;;5019089;28;20054;-80
2023/04/21 09:56:27;;;;;;;16.38;7.82;;;15.70;99.90;;;;;;5034221;28;20169;-82
2023/04/21 09:58:56;;;;;;;21.20;7.82;;;15.60;99.90;;;;;;5035952;28;20065;-80
2023/04/21 10:01:25;;;;;;;15.40;7.50;;;15.60;99.90;;;;;;4999554;28;20132;-80
2023/04/21 10:03:52;;;;;;;15.98;7.60;;;15.60;99.90;;;;;;4989735;28;20049;-80
2023/04/21 10:06:21;;;;;;;14.05;7.97;;;15.60;99.90;;;;;;5000609;28;20139;-78
2023/04/21 10:08:49;;;;;;;18.35;8.00;;;15.70;99.90;;;;;;5004128;28;20463;-79
2023/04/21 10:11:17;;;;;;;14.05;6.97;;;15.70;99.90;;;;;;5005443;28;20129;-81
2023/04/21 10:13:44;;;;;;;17.08;7.72;;;15.70;99.90;;;;;;5036162;28;20042;-78
2023/04/21 10:16:10;;;;;;;16.70;8.05;;;15.80;99.90;;;;;;5001062;28;20064;-79
2023/04/21 10:18:45;;;;;;;17.42;7.85;;;15.80;99.90;;;;;;5001625;28;20037;-78
2023/04/21 10:21:18;;;;;;;17.77;8.15;;;16.00;99.90;;;;;;5008671;28;20053;-77
2023/04/21 10:23:52;;;;;;;18.55;8.18;;;16.10;99.90;;;;;;5003819;28;20060;-80
2023/04/21 10:26:19;;;;;;;14.95;7.38;;;16.20;99.90;;;;;;5002382;28;20053;-77
2023/04/21 10:29:02;;;;;;;17.27;7.60;;;16.30;99.90;;;;;;5005443;28;20128;-79
2023/04/21 10:31:28;;;;;;;14.20;7.47;;;16.40;99.90;;;;;;4987814;28;20129;-78
2023/04/21 10:36:33;;;;;;;13.55;7.38;;;16.60;99.90;;;;;;5012528;28;20057;-78
2023/04/21 10:39:03;;;;;;;13.63;7.18;;;16.70;99.90;;;;;;5004808;28;20099;-78
2023/04/21 10:41:30;;;;;;;18.65;7.88;;;16.80;99.90;;;;;;5011137;28;20070;-79
2023/04/21 10:44:10;;;;;;;14.10;7.97;;;16.90;99.90;;;;;;4994270;28;20052;-80
2023/04/21 10:46:37;;;;;;;16.60;7.90;;;16.90;99.90;;;;;;5009021;28;20037;-77
2023/04/21 10:49:11;;;;;;;15.40;7.95;;;17.00;99.90;;;;;;5006269;28;20223;-78
2023/04/21 10:52:01;;;;;;;17.50;8.18;;;17.00;99.90;;;;;;5009129;28;20080;-77
2023/04/21 10:54:44;;;;;;;16.08;8.23;;;17.10;99.90;;;;;;5038914;28;20109;-78
2023/04/21 10:57:12;;;;;;;14.38;7.55;;;17.20;99.90;;;;;;5018892;28;20041;-76
2023/04/21 10:59:39;;;;;;;17.45;7.75;;;17.30;99.90;;;;;;5049070;28;20049;-78
2023/04/21 11:02:11;;;;;;;13.07;6.68;;;17.30;99.90;;;;;;5008025;28;20518;-76
2023/04/21 11:04:46;;;;;;;15.75;7.10;;;17.30;99.90;;;;;;5013658;28;20042;-76
2023/04/21 11:07:17;;;;;;;15.95;7.63;;;17.30;99.90;;;;;;5012692;28;20041;-78
2023/04/21 11:09:44;;;;;;;;;;;17.40;99.90;;;;;;5030403;28;20524;-79
2023/04/21 11:12:13;;;;;;;16.33;7.82;;;17.30;99.90;;;;;;5015122;28;20024;-77
2023/04/21 11:14:42;;;;;;;15.57;6.90;;;17.40;99.90;;;;;;4996539;28;20054;-77
2023/04/21 11:17:26;;;;;;;16.77;6.40;;;17.40;99.90;;;;;;5043490;28;20039;-79
2023/04/21 11:19:54;;;;;;;17.38;6.97;;;17.50;99.90;;;;;;5041336;28;20508;-77
2023/04/21 11:22:23;;;;;;;14.98;6.95;;;17.60;99.90;;;;;;5024027;28;20292;-78
2023/04/21 11:24:53;;;;;;;13.90;6.70;;;17.60;99.90;;;;;;4991292;28;20746;-78
2023/04/21 11:27:25;;;;;;;15.45;6.38;;;17.70;99.90;;;;;;5023549;28;20042;-78
2023/04/21 11:29:50;;;;;;;26.25;7.13;;;17.80;99.90;;;;;;5017564;28;20053;-77
2023/04/21 11:32:17;;;;;;;10.85;5.70;;;17.80;99.90;;;;;;5017058;28;20049;-76
2023/04/21 11:34:44;;;;;;;14.55;6.47;;;17.90;99.90;;;;;;5010124;28;20160;-77
2023/04/21 11:37:14;;;;;;;13.23;6.50;;;18.00;99.90;;;;;;5031270;28;20045;-75
2023/04/21 11:39:40;;;;;;;12.55;6.60;;;18.10;99.90;;;;;;5014981;28;20058;-77
2023/04/21 11:42:06;;;;;;;12.32;5.78;;;18.00;99.90;;;;;;5015809;28;20700;-77
2023/04/21 11:44:37;;;;;;;15.00;6.20;;;18.00;99.90;;;;;;5006997;28;20052;-76
2023/04/21 11:47:17;;;;;;;11.18;5.45;;;17.90;99.90;;;;;;5041648;28;20058;-77
2023/04/21 11:49:51;;;;;;;16.63;5.70;;;17.80;99.90;;;;;;5014332;28;20037;-78
2023/04/21 11:52:28;;;;;;;14.45;6.20;;;17.80;99.90;;;;;;5017246;28;20041;-78
2023/04/21 11:54:59;;;;;;;15.98;5.20;;;17.90;99.90;;;;;;5013736;28;20049;-77
2023/04/21 11:57:27;;;;;;;12.88;5.03;;;17.90;99.90;;;;;;5018563;28;20037;-77
2023/04/21 11:59:53;;;;;;;13.82;5.25;;;17.80;99.90;;;;;;5017399;28;20046;-77
2023/04/21 12:02:28;;;;;;;15.45;5.20;;;17.80;99.90;;;;;;5015997;28;20050;-78
2023/04/21 12:05:01;;;;;;;11.73;4.85;;;17.90;99.90;;;;;;5041365;28;20061;-77
2023/04/21 12:07:29;;;;;;;10.38;4.78;;;17.90;99.90;;;;;;5041385;28;20049;-79
2023/04/21 12:09:54;;;;;;;11.93;4.30;;;18.10;99.90;;;;;;5044726;28;20045;-76
2023/04/21 12:12:23;;;;;;;15.15;4.15;;;18.20;99.90;;;;;;5001333;28;20045;-76
2023/04/21 12:14:53;;;;;;;12.35;3.85;;;18.30;99.80;;;;;;5014236;28;20049;-78
2023/04/21 12:17:20;;;;;;;11.27;3.55;;;18.30;98.60;;;;;;5017741;28;20517;-76
2023/04/21 12:19:48;;;;;;;12.75;3.42;;;18.30;96.70;;;;;;5031117;28;20041;-77
2023/04/21 12:22:22;;;;;;;9.90;3.72;;;18.30;97.60;;;;;;5030486;28;20536;-75
2023/04/21 12:24:48;;;;;;;13.30;3.78;;;18.30;98.20;;;;;;5000850;28;20048;-75
2023/04/21 12:27:14;;;;;;;7.22;3.42;;;18.30;97.10;;;;;;5017885;28;20049;-76
2023/04/21 12:29:40;;;;;;;8.90;3.15;;;18.40;97.60;;;;;;5018806;28;20131;-76
2023/04/21 12:32:07;;;;;;;8.60;3.50;;;18.40;97.10;;;;;;5020779;28;20057;-76
2023/04/21 12:34:34;;;;;;;15.57;3.45;;;18.50;96.10;;;;;;5014480;28;20490;-76
2023/04/21 12:37:00;;;;;;;12.35;3.20;;;18.70;95.50;;;;;;5030024;28;20052;-75
2023/04/21 12:39:26;;;;;;;14.13;3.25;;;18.70;95.90;;;;;;5010906;28;20160;-76
2023/04/21 12:41:53;;;;;;;10.70;4.00;;;18.70;95.50;;;;;;5000017;28;20061;-74